createdAt,value
2023-03-29T00:02:02.625Z,100208.91
2023-03-29T00:04:29.557Z,100219.06
2023-03-29T00:06:56.367Z,100220.63
2023-03-29T00:09:23.372Z,100236.34
2023-03-29T00:11:50.078Z,100245.22
2023-03-29T00:14:16.762Z,100240.91
2023-03-29T00:16:44.992Z,100254.75
2023-03-29T00:19:11.773Z,100247.94
2023-03-29T00:21:38.438Z,100236.44
2023-03-29T00:24:05.196Z,100229.63
2023-03-29T00:26:31.788Z,100214.19
2023-03-29T00:28:58.300Z,100207.63
2023-03-29T00:31:25.083Z,100218.88
2023-03-29T00:33:51.776Z,100219.94
2023-03-29T00:36:18.302Z,100224.03
2023-03-29T00:38:44.985Z,100214.94
2023-03-29T00:41:12.056Z,100217.94
2023-03-29T00:43:56.229Z,100208.13
2023-03-29T00:46:24.254Z,100206.28
2023-03-29T00:48:54.034Z,100214.06
2023-03-29T00:51:22.711Z,100212.00
2023-03-29T00:53:53.989Z,100210.94
2023-03-29T00:56:27.724Z,100212.25
2023-03-29T00:59:05.496Z,100211.19
2023-03-29T01:04:18.294Z,100206.84
2023-03-29T01:06:55.493Z,100202.63
2023-03-29T01:09:24.684Z,100197.00
2023-03-29T01:11:55.728Z,100199.44
2023-03-29T01:14:42.577Z,100196.56
2023-03-29T01:17:09.267Z,100199.13
2023-03-29T01:19:43.340Z,100201.16
2023-03-29T01:22:28.807Z,100192.75
2023-03-29T01:25:17.535Z,100201.72
2023-03-29T01:28:02.593Z,100197.94
2023-03-29T01:30:40.525Z,100203.06
2023-03-29T01:33:15.135Z,100194.03
2023-03-29T01:35:46.049Z,100192.56
2023-03-29T01:38:20.670Z,100192.25
2023-03-29T01:40:47.456Z,100195.84
2023-03-29T01:43:36.212Z,100195.53
2023-03-29T01:46:12.104Z,100198.94
2023-03-29T01:48:48.206Z,100195.94
2023-03-29T01:51:14.867Z,100200.78
2023-03-29T01:53:51.302Z,100197.44
2023-03-29T01:56:21.794Z,100202.16
2023-03-29T01:58:53.015Z,100192.00
2023-03-29T02:01:26.236Z,100204.84
2023-03-29T02:03:57.639Z,100193.63
2023-03-29T02:06:27.876Z,100197.75
2023-03-29T02:08:55.833Z,100200.44
2023-03-29T02:11:24.352Z,100192.50
2023-03-29T02:13:51.264Z,100188.78
2023-03-29T02:16:18.560Z,100197.50
2023-03-29T02:18:48.011Z,100203.56
2023-03-29T02:21:25.956Z,100208.31
2023-03-29T02:23:55.411Z,100200.44
2023-03-29T02:26:22.571Z,100199.53
2023-03-29T02:28:49.515Z,100201.19
2023-03-29T02:31:24.941Z,100207.44
2023-03-29T02:34:02.348Z,100195.59
2023-03-29T02:36:46.765Z,100192.59
2023-03-29T02:39:16.150Z,100194.53
2023-03-29T02:41:47.142Z,100196.34
2023-03-29T02:44:15.058Z,100189.63
2023-03-29T02:46:44.054Z,100192.81
2023-03-29T02:49:11.610Z,100184.72
2023-03-29T02:51:38.868Z,100187.88
2023-03-29T02:54:26.210Z,100184.97
2023-03-29T02:57:00.391Z,100188.06
2023-03-29T02:59:29.917Z,100182.59
2023-03-29T03:01:56.799Z,100180.56
2023-03-29T03:04:23.636Z,100183.94
2023-03-29T03:06:50.453Z,100184.59
2023-03-29T03:09:18.725Z,100180.59
2023-03-29T03:11:45.307Z,100175.94
2023-03-29T03:14:12.575Z,100175.59
2023-03-29T03:16:39.118Z,100176.84
2023-03-29T03:19:06.117Z,100182.53
2023-03-29T03:21:34.269Z,100172.22
2023-03-29T03:24:00.952Z,100175.00
2023-03-29T03:26:30.301Z,100169.63
2023-03-29T03:28:57.776Z,100164.16
2023-03-29T03:31:24.983Z,100170.09
2023-03-29T03:33:52.900Z,100166.94
2023-03-29T03:36:19.924Z,100161.56
2023-03-29T03:38:46.525Z,100167.00
2023-03-29T03:41:13.180Z,100163.03
2023-03-29T03:43:42.559Z,100156.16
2023-03-29T03:46:09.365Z,100161.56
2023-03-29T03:48:37.181Z,100161.91
2023-03-29T03:51:04.911Z,100150.94
2023-03-29T03:53:32.291Z,100154.38
2023-03-29T03:55:58.877Z,100151.09
2023-03-29T03:58:26.094Z,100149.75
2023-03-29T04:00:52.717Z,100144.63
2023-03-29T04:03:19.495Z,100142.66
2023-03-29T04:05:47.473Z,100142.75
2023-03-29T04:08:14.914Z,100142.97
2023-03-29T04:10:41.801Z,100148.59
2023-03-29T04:13:08.435Z,100158.25
2023-03-29T04:15:39.082Z,100160.00
2023-03-29T04:18:07.497Z,100161.19
2023-03-29T04:20:34.765Z,100160.72
2023-03-29T04:23:01.965Z,100164.53
2023-03-29T04:25:28.944Z,100165.38
2023-03-29T04:27:56.177Z,100157.91
2023-03-29T04:30:22.983Z,100159.31
2023-03-29T04:32:49.658Z,100159.13
2023-03-29T04:35:16.735Z,100161.13
2023-03-29T04:37:43.667Z,100160.81
2023-03-29T04:40:19.479Z,100170.78
2023-03-29T04:42:47.303Z,100174.63
2023-03-29T04:45:18.022Z,100175.28
2023-03-29T04:47:45.888Z,100174.66
2023-03-29T04:50:13.924Z,100170.13
2023-03-29T04:52:41.017Z,100176.91
2023-03-29T04:55:08.289Z,100161.84
2023-03-29T04:57:34.942Z,100162.97
2023-03-29T05:00:01.479Z,100172.31
2023-03-29T05:02:31.103Z,100179.59
2023-03-29T05:04:58.081Z,100176.78
2023-03-29T05:07:24.614Z,100178.03
2023-03-29T05:09:51.356Z,100176.53
2023-03-29T05:12:18.035Z,100176.19
2023-03-29T05:14:44.540Z,100175.59
2023-03-29T05:17:11.203Z,100190.13
2023-03-29T05:19:38.409Z,100185.53
2023-03-29T05:22:05.058Z,100191.09
2023-03-29T05:24:31.962Z,100191.53
2023-03-29T05:26:58.551Z,100184.34
2023-03-29T05:29:25.244Z,100183.56
2023-03-29T05:31:52.695Z,100189.53
2023-03-29T05:34:20.061Z,100195.28
2023-03-29T05:36:46.715Z,100187.47
2023-03-29T05:39:13.718Z,100187.31
2023-03-29T05:41:41.654Z,100195.16
2023-03-29T05:44:08.544Z,100200.81
2023-03-29T05:46:35.771Z,100192.00
2023-03-29T05:49:02.580Z,100189.75
2023-03-29T05:51:29.153Z,100190.78
2023-03-29T05:53:56.057Z,100179.81
2023-03-29T05:56:22.870Z,100191.41
2023-03-29T05:58:49.552Z,100188.13
2023-03-29T06:01:18.115Z,100183.06
2023-03-29T06:03:46.242Z,100186.06
2023-03-29T06:06:16.573Z,100195.53
2023-03-29T06:08:44.339Z,100195.97
2023-03-29T06:11:13.347Z,100197.63
2023-03-29T06:13:42.202Z,100193.28
2023-03-29T06:16:10.497Z,100193.03
2023-03-29T06:18:40.206Z,100201.56
2023-03-29T06:21:09.276Z,100199.38
2023-03-29T06:23:36.700Z,100202.16
2023-03-29T06:26:03.814Z,100211.75
2023-03-29T06:28:30.670Z,100211.81
2023-03-29T06:31:03.275Z,100203.06
2023-03-29T06:33:32.342Z,100204.06
2023-03-29T06:35:59.084Z,100204.63
2023-03-29T06:38:28.728Z,100202.50
2023-03-29T06:41:06.802Z,100207.75
2023-03-29T06:43:34.864Z,100220.25
2023-03-29T06:46:02.066Z,100223.47
2023-03-29T06:48:29.365Z,100225.59
2023-03-29T06:50:56.514Z,100228.72
2023-03-29T06:53:23.189Z,100230.13
2023-03-29T06:55:51.925Z,100234.72
2023-03-29T06:58:18.799Z,100236.25
2023-03-29T07:00:46.170Z,100225.34
2023-03-29T07:03:20.014Z,100223.66
2023-03-29T07:05:47.485Z,100229.50
2023-03-29T07:08:16.264Z,100236.84
2023-03-29T07:10:47.632Z,100246.13
2023-03-29T07:13:14.603Z,100244.03
2023-03-29T07:15:42.087Z,100246.53
2023-03-29T07:18:10.458Z,100247.81
2023-03-29T07:20:38.987Z,100245.78
2023-03-29T07:23:07.810Z,100234.59
2023-03-29T07:25:34.518Z,100234.72
2023-03-29T07:28:02.111Z,100241.41
2023-03-29T07:30:32.371Z,100247.72
2023-03-29T07:32:59.781Z,100250.34
2023-03-29T07:35:30.952Z,100254.97
2023-03-29T07:37:58.467Z,100260.88
2023-03-29T07:40:26.538Z,100263.56
2023-03-29T07:42:55.037Z,100262.41
2023-03-29T07:45:26.644Z,100273.06
2023-03-29T07:47:57.406Z,100265.84
2023-03-29T07:50:24.386Z,100255.09
2023-03-29T07:52:51.115Z,100270.84
2023-03-29T07:55:17.926Z,100264.31
2023-03-29T07:57:44.562Z,100265.25
2023-03-29T08:00:16.257Z,100263.03
2023-03-29T08:02:45.119Z,100267.22
2023-03-29T08:05:13.860Z,100257.59
2023-03-29T08:07:43.112Z,100255.72
2023-03-29T08:10:13.755Z,100249.09
2023-03-29T08:12:41.174Z,100244.25
2023-03-29T08:15:08.696Z,100251.59
2023-03-29T08:17:36.350Z,100271.19
2023-03-29T08:20:05.953Z,100268.69
2023-03-29T08:22:33.892Z,100271.34
2023-03-29T08:25:00.668Z,100269.13
2023-03-29T08:27:27.268Z,100266.00
2023-03-29T08:29:53.756Z,100257.63
2023-03-29T08:32:20.529Z,100253.66
2023-03-29T08:34:47.548Z,100254.69
2023-03-29T08:37:14.937Z,100255.59
2023-03-29T08:39:41.741Z,100262.84
2023-03-29T08:42:31.892Z,100262.91
2023-03-29T08:45:40.891Z,100260.00
2023-03-29T08:48:25.669Z,100270.84
2023-03-29T08:50:56.608Z,100266.59
2023-03-29T08:53:36.506Z,100287.81
2023-03-29T08:56:09.180Z,100269.09
2023-03-29T08:58:38.071Z,100262.06
2023-03-29T09:01:08.642Z,100260.28
2023-03-29T09:03:41.077Z,100220.75
2023-03-29T09:06:10.181Z,100222.13
2023-03-29T09:08:43.555Z,100237.06
2023-03-29T09:11:12.726Z,100261.84
2023-03-29T09:13:53.735Z,100270.22
2023-03-29T09:16:38.705Z,100261.81
2023-03-29T09:19:32.243Z,100263.66
2023-03-29T09:22:08.604Z,100261.34
2023-03-29T09:25:16.826Z,100253.28
2023-03-29T09:27:56.248Z,100248.47
2023-03-29T09:30:29.101Z,100253.28
2023-03-29T09:33:21.863Z,100239.75
2023-03-29T09:36:02.959Z,100232.88
2023-03-29T09:38:31.348Z,100226.72
2023-03-29T09:41:04.428Z,100225.00
2023-03-29T09:43:42.821Z,100225.44
2023-03-29T09:46:18.070Z,100232.00
2023-03-29T09:48:47.062Z,100235.59
2023-03-29T09:51:14.523Z,100238.84
2023-03-29T09:53:41.219Z,100241.34
2023-03-29T09:56:08.718Z,100232.91
2023-03-29T09:58:36.255Z,100235.09
2023-03-29T10:01:08.820Z,100223.81
2023-03-29T10:03:37.075Z,100228.88
2023-03-29T10:06:06.442Z,100232.91
2023-03-29T10:08:40.790Z,100227.53
2023-03-29T10:11:13.591Z,100217.16
2023-03-29T10:13:54.867Z,100206.41
2023-03-29T10:16:29.465Z,100204.19
2023-03-29T10:18:56.554Z,100205.56
2023-03-29T10:21:23.811Z,100204.34
2023-03-29T10:23:58.324Z,100195.56
2023-03-29T10:26:31.791Z,100195.06
2023-03-29T10:29:01.724Z,100196.38
2023-03-29T10:31:33.070Z,100205.16
2023-03-29T10:34:06.403Z,100203.69
2023-03-29T10:36:33.183Z,100197.09
2023-03-29T10:39:05.601Z,100178.72
2023-03-29T10:41:34.538Z,100186.00
2023-03-29T10:44:01.725Z,100181.97
2023-03-29T10:46:40.297Z,100176.13
2023-03-29T10:49:19.105Z,100167.59
2023-03-29T10:51:47.072Z,100161.84
2023-03-29T10:54:17.271Z,100164.16
2023-03-29T10:56:52.337Z,100153.94
2023-03-29T10:59:28.224Z,100138.78
2023-03-29T11:02:15.180Z,100137.31
2023-03-29T11:05:03.546Z,100150.22
2023-03-29T11:07:41.558Z,100138.38
2023-03-29T11:10:33.909Z,100138.63
2023-03-29T11:13:38.230Z,100155.84
2023-03-29T11:16:23.942Z,100140.69
2023-03-29T11:18:56.915Z,100140.16
2023-03-29T11:21:29.425Z,100136.88
2023-03-29T11:24:33.951Z,100125.09
2023-03-29T11:27:17.348Z,100130.63
2023-03-29T11:29:49.854Z,100119.22
2023-03-29T11:32:29.278Z,100112.09
2023-03-29T11:35:12.399Z,100110.25
2023-03-29T11:37:50.958Z,100104.69
2023-03-29T11:40:51.643Z,100093.69
2023-03-29T11:43:24.482Z,100106.31
2023-03-29T11:46:00.139Z,100090.31
2023-03-29T11:48:32.414Z,100095.50
2023-03-29T11:51:14.322Z,100096.34
2023-03-29T11:53:51.310Z,100103.00
2023-03-29T11:56:29.440Z,100092.44
2023-03-29T11:59:03.069Z,100087.44
2023-03-29T12:01:42.517Z,100077.75
2023-03-29T12:04:23.371Z,100078.78
2023-03-29T12:07:14.544Z,100080.06
2023-03-29T12:10:00.153Z,100075.72
2023-03-29T12:12:30.373Z,100082.41
2023-03-29T12:15:15.595Z,100074.66
2023-03-29T12:17:46.996Z,100077.66
2023-03-29T12:20:23.349Z,100072.78
2023-03-29T12:22:51.169Z,100067.66
2023-03-29T12:25:23.681Z,100064.09
2023-03-29T12:28:04.956Z,100060.84
2023-03-29T12:31:11.974Z,100047.25
2023-03-29T12:33:57.710Z,100042.13
2023-03-29T12:36:45.301Z,100028.53
2023-03-29T12:39:16.129Z,100026.53
2023-03-29T12:41:45.654Z,100030.41
2023-03-29T12:44:15.183Z,100019.44
2023-03-29T12:46:42.229Z,100018.34
2023-03-29T12:49:26.901Z,100015.94
2023-03-29T12:51:57.292Z,100012.25
2023-03-29T12:54:28.378Z,100004.69
2023-03-29T12:57:00.439Z,99995.03
2023-03-29T12:59:37.215Z,100000.56
2023-03-29T13:02:33.283Z,99994.41
2023-03-29T13:05:04.917Z,99998.03
2023-03-29T13:07:45.939Z,99987.09
2023-03-29T13:10:41.322Z,99988.84
2023-03-29T13:13:14.782Z,99987.28
2023-03-29T13:15:43.529Z,99980.94
2023-03-29T13:18:49.035Z,99984.13
2023-03-29T13:21:27.683Z,99978.00
2023-03-29T13:24:14.237Z,99969.25
2023-03-29T13:26:50.793Z,99966.16
2023-03-29T13:29:35.745Z,99968.97
2023-03-29T13:32:20.744Z,99961.63
2023-03-29T13:34:57.053Z,99943.88
2023-03-29T13:38:01.251Z,99933.22
2023-03-29T13:40:30.985Z,99935.22
2023-03-29T13:43:00.907Z,99920.19
2023-03-29T13:45:32.619Z,99929.69
2023-03-29T13:48:22.488Z,99928.25
2023-03-29T13:51:08.285Z,99940.03
2023-03-29T13:53:52.086Z,99934.78
2023-03-29T13:56:25.183Z,99935.53
2023-03-29T13:58:58.136Z,99939.53
2023-03-29T14:01:32.228Z,99938.56
2023-03-29T14:03:59.343Z,99939.72
2023-03-29T14:06:30.017Z,99933.09
2023-03-29T14:08:57.903Z,99923.47
2023-03-29T14:11:26.751Z,99916.53
2023-03-29T14:13:55.564Z,99915.06
2023-03-29T14:16:22.853Z,99914.59
2023-03-29T14:18:51.439Z,99914.59
2023-03-29T14:21:20.053Z,99907.34
2023-03-29T14:23:54.100Z,99910.50
2023-03-29T14:26:23.377Z,99894.16
2023-03-29T14:28:52.301Z,99886.13
2023-03-29T14:31:21.963Z,99894.16
2023-03-29T14:33:53.513Z,99887.19
2023-03-29T14:36:21.288Z,99885.56
2023-03-29T14:38:53.480Z,99880.28
2023-03-29T14:41:22.032Z,99875.59
2023-03-29T14:43:51.577Z,99869.50
2023-03-29T14:46:21.582Z,99863.50
2023-03-29T14:48:48.583Z,99864.81
2023-03-29T14:51:15.623Z,99865.28
2023-03-29T14:53:42.721Z,99864.22
2023-03-29T14:56:14.025Z,99866.28
2023-03-29T14:58:46.727Z,99863.72
2023-03-29T15:01:18.158Z,99857.44
2023-03-29T15:03:50.535Z,99852.56
2023-03-29T15:06:17.081Z,99847.34
2023-03-29T15:08:57.646Z,99844.72
2023-03-29T15:11:32.108Z,99839.13
2023-03-29T15:14:04.510Z,99828.66
2023-03-29T15:16:31.796Z,99829.72
2023-03-29T15:19:01.570Z,99823.44
2023-03-29T15:21:34.638Z,99827.34
2023-03-29T15:24:04.064Z,99822.50
2023-03-29T15:26:36.198Z,99808.97
2023-03-29T15:29:17.161Z,99813.41
2023-03-29T15:31:55.025Z,99817.59
2023-03-29T15:34:32.263Z,99812.84
2023-03-29T15:36:59.457Z,99805.63
2023-03-29T15:39:27.840Z,99814.34
2023-03-29T15:41:56.940Z,99805.56
2023-03-29T15:44:29.062Z,99804.97
2023-03-29T15:46:57.999Z,99807.44
2023-03-29T15:49:25.124Z,99803.53
2023-03-29T15:51:54.048Z,99800.16
2023-03-29T15:54:21.895Z,99806.78
2023-03-29T15:56:55.406Z,99801.13
2023-03-29T15:59:22.920Z,99804.13
2023-03-29T16:01:49.626Z,99787.22
2023-03-29T16:04:18.548Z,99796.41
2023-03-29T16:06:48.738Z,99783.41
2023-03-29T16:09:16.749Z,99781.16
2023-03-29T16:11:44.773Z,99774.19
2023-03-29T16:14:31.811Z,99774.16
2023-03-29T16:17:01.626Z,99775.88
2023-03-29T16:19:29.927Z,99778.13
2023-03-29T16:21:57.155Z,99771.19
2023-03-29T16:24:27.267Z,99765.31
2023-03-29T16:26:56.036Z,99768.56
2023-03-29T16:29:23.432Z,99764.47
2023-03-29T16:31:50.481Z,99762.16
2023-03-29T16:34:18.855Z,99756.75
2023-03-29T16:36:49.561Z,99768.91
2023-03-29T16:39:17.373Z,99762.91
2023-03-29T16:41:46.882Z,99762.03
2023-03-29T16:44:16.966Z,99757.13
2023-03-29T16:46:43.931Z,99754.91
2023-03-29T16:49:18.237Z,99754.78
2023-03-29T16:51:46.888Z,99761.00
2023-03-29T16:54:14.140Z,99753.63
2023-03-29T16:56:40.908Z,99751.47
2023-03-29T16:59:07.662Z,99750.75
2023-03-29T17:01:34.366Z,99749.97
2023-03-29T17:04:01.125Z,99753.16
2023-03-29T17:06:27.952Z,99746.03
2023-03-29T17:08:54.447Z,99741.63
2023-03-29T17:11:23.388Z,99745.00
2023-03-29T17:13:50.453Z,99745.66
2023-03-29T17:16:17.870Z,99742.81
2023-03-29T17:18:44.513Z,99746.69
2023-03-29T17:21:11.102Z,99744.59
2023-03-29T17:23:37.589Z,99742.00
2023-03-29T17:26:05.353Z,99752.56
2023-03-29T17:28:32.139Z,99747.34
2023-03-29T17:30:58.718Z,99747.44
2023-03-29T17:33:26.481Z,99757.09
2023-03-29T17:35:53.256Z,99759.13
2023-03-29T17:38:20.079Z,99755.56
2023-03-29T17:40:55.874Z,99765.66
2023-03-29T17:43:22.955Z,99757.84
2023-03-29T17:45:52.943Z,99752.91
2023-03-29T17:48:19.844Z,99758.53
2023-03-29T17:50:46.635Z,99748.34
2023-03-29T17:53:13.450Z,99749.47
2023-03-29T17:55:41.231Z,99747.91
2023-03-29T17:58:08.352Z,99757.34
2023-03-29T18:00:35.129Z,99754.84
2023-03-29T18:03:01.995Z,99752.00
2023-03-29T18:05:28.789Z,99752.84
2023-03-29T18:07:55.424Z,99756.84
2023-03-29T18:10:22.367Z,99750.41
2023-03-29T18:12:48.946Z,99766.47
2023-03-29T18:15:15.642Z,99759.72
2023-03-29T18:17:42.353Z,99763.81
2023-03-29T18:20:11.862Z,99754.03
2023-03-29T18:22:39.718Z,99758.63
2023-03-29T18:25:07.560Z,99749.81
2023-03-29T18:27:34.149Z,99750.72
2023-03-29T18:30:00.654Z,99756.44
2023-03-29T18:32:27.773Z,99756.72
2023-03-29T18:34:54.341Z,99757.66
2023-03-29T18:37:21.006Z,99764.28
2023-03-29T18:39:48.271Z,99768.00
2023-03-29T18:42:14.925Z,99780.66
2023-03-29T18:44:42.256Z,99777.47
2023-03-29T18:47:09.187Z,99774.53
2023-03-29T18:49:36.705Z,99784.66
2023-03-29T18:52:04.728Z,99783.84
2023-03-29T18:54:31.518Z,99783.56
2023-03-29T18:56:59.300Z,99787.72
2023-03-29T18:59:26.132Z,99785.00
2023-03-29T19:01:53.048Z,99784.44
2023-03-29T19:04:20.084Z,99785.28
2023-03-29T19:06:47.519Z,99781.84
2023-03-29T19:09:14.429Z,99768.56
2023-03-29T19:11:41.231Z,99769.66
2023-03-29T19:14:09.334Z,99776.09
2023-03-29T19:16:36.392Z,99780.53
2023-03-29T19:19:04.984Z,99785.59
2023-03-29T19:21:32.367Z,99786.16
2023-03-29T19:24:00.876Z,99779.06
2023-03-29T19:26:29.494Z,99781.47
2023-03-29T19:28:56.325Z,99788.13
2023-03-29T19:31:23.155Z,99777.13
2023-03-29T19:33:49.657Z,99782.38
2023-03-29T19:36:16.534Z,99777.31
2023-03-29T19:38:43.217Z,99769.75
2023-03-29T19:41:09.775Z,99770.41
2023-03-29T19:43:36.677Z,99768.75
2023-03-29T19:46:08.659Z,99773.31
2023-03-29T19:48:35.316Z,99773.59
2023-03-29T19:51:02.953Z,99771.88
2023-03-29T19:53:30.826Z,99776.34
2023-03-29T19:55:57.599Z,99782.38
2023-03-29T19:58:24.432Z,99776.34
2023-03-29T20:00:51.193Z,99768.22
2023-03-29T20:03:17.893Z,99771.84
2023-03-29T20:05:46.342Z,99767.69
2023-03-29T20:08:12.951Z,99769.00
2023-03-29T20:10:39.546Z,99763.72
2023-03-29T20:13:06.852Z,99764.34
2023-03-29T20:15:34.066Z,99763.06
2023-03-29T20:18:01.055Z,99763.84
2023-03-29T20:20:28.441Z,99771.03
2023-03-29T20:22:58.525Z,99756.34
2023-03-29T20:25:25.865Z,99754.69
2023-03-29T20:27:53.189Z,99752.84
2023-03-29T20:30:20.185Z,99758.53
2023-03-29T20:32:46.803Z,99758.94
2023-03-29T20:35:13.618Z,99765.59
2023-03-29T20:37:40.396Z,99762.00
2023-03-29T20:40:08.261Z,99751.34
2023-03-29T20:42:36.708Z,99751.44
2023-03-29T20:45:04.450Z,99753.97
2023-03-29T20:47:31.272Z,99745.63
2023-03-29T20:49:57.979Z,99746.88
2023-03-29T20:52:24.822Z,99749.28
2023-03-29T20:54:51.374Z,99747.09
2023-03-29T20:57:20.869Z,99738.78
2023-03-29T20:59:49.276Z,99741.50
2023-03-29T21:02:25.083Z,99740.97
2023-03-29T21:04:53.008Z,99735.06
2023-03-29T21:07:20.352Z,99735.28
2023-03-29T21:09:50.436Z,99726.09
2023-03-29T21:12:17.417Z,99728.91
2023-03-29T21:14:44.700Z,99723.28
2023-03-29T21:17:11.289Z,99720.47
2023-03-29T21:19:39.204Z,99719.63
2023-03-29T21:22:06.063Z,99723.31
2023-03-29T21:24:33.170Z,99733.06
2023-03-29T21:27:00.672Z,99722.97
2023-03-29T21:29:27.343Z,99742.81
2023-03-29T21:31:54.176Z,99738.53
2023-03-29T21:34:20.874Z,99742.81
2023-03-29T21:36:47.468Z,99741.31
2023-03-29T21:39:14.175Z,99728.81
2023-03-29T21:41:40.831Z,99736.53
2023-03-29T21:44:07.332Z,99731.97
2023-03-29T21:46:34.039Z,99738.09
2023-03-29T21:49:00.865Z,99733.91
2023-03-29T21:51:27.363Z,99720.56
2023-03-29T21:53:53.946Z,99724.16
2023-03-29T21:56:20.594Z,99721.00
2023-03-29T21:58:47.086Z,99722.38
2023-03-29T22:01:13.625Z,99731.03
2023-03-29T22:03:40.244Z,99724.03
2023-03-29T22:06:09.449Z,99725.16
2023-03-29T22:08:38.851Z,99726.03
2023-03-29T22:11:11.197Z,99721.13
2023-03-29T22:13:37.844Z,99719.69
2023-03-29T22:16:05.549Z,99717.91
2023-03-29T22:18:42.591Z,99720.50
2023-03-29T22:21:14.544Z,99723.53
2023-03-29T22:23:46.507Z,99721.34
2023-03-29T22:26:14.655Z,99721.13
2023-03-29T22:28:41.784Z,99716.63
2023-03-29T22:31:16.571Z,99721.47
2023-03-29T22:33:43.711Z,99717.91
2023-03-29T22:36:27.892Z,99722.91
2023-03-29T22:38:55.161Z,99714.38
2023-03-29T22:41:23.784Z,99719.75
2023-03-29T22:43:55.450Z,99717.72
2023-03-29T22:46:22.105Z,99723.72
2023-03-29T22:48:48.838Z,99720.88
2023-03-29T22:51:16.349Z,99718.00
2023-03-29T22:53:43.220Z,99710.81
2023-03-29T22:56:09.741Z,99723.22
2023-03-29T22:58:37.681Z,99720.31
2023-03-29T23:01:05.645Z,99720.81
2023-03-29T23:03:32.872Z,99724.00
2023-03-29T23:06:03.535Z,99720.97
2023-03-29T23:08:32.197Z,99723.59
2023-03-29T23:10:59.441Z,99724.44
2023-03-29T23:13:29.001Z,99723.59
2023-03-29T23:16:00.493Z,99727.06
2023-03-29T23:18:29.594Z,99728.50
2023-03-29T23:20:58.280Z,99735.19
2023-03-29T23:23:26.899Z,99711.44
2023-03-29T23:25:55.586Z,99719.66
2023-03-29T23:28:26.029Z,99721.00
2023-03-29T23:31:13.884Z,99712.28
2023-03-29T23:33:42.787Z,99717.38
2023-03-29T23:36:12.882Z,99704.59
2023-03-29T23:38:40.859Z,99705.81
2023-03-29T23:41:10.883Z,99712.59
2023-03-29T23:43:40.580Z,99706.13
2023-03-29T23:46:12.406Z,99711.53
2023-03-29T23:48:39.264Z,99702.94
2023-03-29T23:51:07.959Z,99693.41
2023-03-29T23:53:34.803Z,99716.75
2023-03-29T23:56:03.169Z,99714.22
2023-03-29T23:58:32.645Z,99711.78
